createdAt,value
2019-02-26T12:09:45.612Z,24.20
2019-02-26T12:12:13.509Z,24.10
2019-02-26T12:14:43.214Z,23.60
2019-02-26T12:17:10.626Z,22.90
2019-02-26T12:19:38.209Z,23.20
2019-02-26T12:22:06.223Z,23.50
2019-02-26T12:24:35.958Z,24.10
2019-02-26T12:27:03.748Z,23.50
2019-02-26T12:29:31.337Z,23.60
2019-02-26T12:32:01.192Z,24.10
2019-02-26T12:34:29.270Z,24.40
2019-02-26T12:36:59.634Z,24.80
2019-02-26T12:39:29.230Z,24.90
2019-02-26T12:41:56.763Z,24.60
2019-02-26T12:44:24.340Z,23.70
2019-02-26T12:46:53.692Z,23.40
2019-02-26T12:49:22.850Z,23.20
2019-02-26T12:51:53.742Z,23.60
2019-02-26T12:54:20.121Z,22.60
2019-02-26T12:56:49.051Z,22.90
2019-02-26T12:59:17.509Z,23.10
2019-02-26T13:01:46.807Z,22.70
2019-02-26T13:04:17.453Z,23.00
2019-02-26T13:06:48.431Z,23.00
2019-02-26T13:09:15.504Z,22.50
2019-02-26T13:12:00.511Z,23.30
2019-02-26T13:14:12.727Z,23.90
2019-02-26T13:16:42.490Z,23.60
2019-02-26T13:19:11.230Z,23.60
2019-02-26T13:21:42.728Z,23.10
2019-02-26T13:24:13.922Z,22.60
2019-02-26T13:26:38.948Z,22.30
2019-02-26T13:29:07.850Z,22.10
2019-02-26T13:31:41.904Z,22.80
2019-02-26T13:34:05.587Z,21.90
2019-02-26T13:36:36.353Z,21.80
2019-02-26T13:39:06.192Z,22.00
2019-02-26T13:41:38.845Z,22.20
2019-02-26T13:44:03.938Z,21.90
2019-02-26T13:46:31.661Z,21.20
2019-02-26T13:48:59.553Z,21.50
2019-02-26T13:51:29.081Z,22.00
2019-02-26T13:53:56.614Z,22.00
2019-02-26T13:56:24.256Z,21.50
2019-02-26T13:58:52.216Z,21.50
2019-02-26T14:01:19.832Z,21.50
2019-02-26T14:03:47.482Z,21.50
2019-02-26T14:06:15.362Z,21.60
2019-02-26T14:08:43.015Z,21.00
2019-02-26T14:11:10.635Z,21.00
2019-02-26T14:13:38.253Z,21.10
2019-02-26T14:16:05.927Z,21.30
2019-02-26T14:18:33.765Z,21.30
2019-02-26T14:21:01.702Z,21.60
2019-02-26T14:23:34.750Z,22.00
2019-02-26T14:25:59.269Z,22.10
2019-02-26T14:28:26.915Z,21.70
2019-02-26T14:30:55.150Z,21.80
2019-02-26T14:33:23.118Z,21.70
2019-02-26T14:35:50.943Z,21.90
2019-02-26T14:38:18.931Z,21.90
2019-02-26T14:40:46.677Z,21.80
2019-02-26T14:43:14.270Z,22.20
2019-02-26T14:45:41.890Z,22.20
2019-02-26T14:48:09.762Z,22.00
2019-02-26T14:50:37.376Z,21.40
2019-02-26T14:53:05.042Z,21.60
2019-02-26T14:55:32.684Z,22.50
2019-02-26T14:58:00.306Z,23.00
2019-02-26T15:00:27.924Z,23.10
2019-02-26T15:02:55.671Z,23.10
2019-02-26T15:05:23.585Z,23.00
2019-02-26T15:07:51.193Z,23.00
2019-02-26T15:10:20.520Z,22.90
2019-02-26T15:12:48.399Z,22.60
2019-02-26T15:15:15.995Z,22.00
2019-02-26T15:17:43.651Z,21.70
2019-02-26T15:20:13.312Z,21.90
2019-02-26T15:22:41.128Z,22.20
2019-02-26T15:25:12.094Z,21.80
2019-02-26T15:27:40.020Z,21.90
2019-02-26T15:30:09.386Z,22.40
2019-02-26T15:32:37.022Z,22.40
2019-02-26T15:35:04.951Z,21.80
2019-02-26T15:37:33.599Z,21.60
2019-02-26T15:40:01.196Z,21.20
2019-02-26T15:42:28.846Z,20.60
